Time;durP1;ratioP1;P1;durP2;ratioP2;P2;SDS_P1;SDS_P2;PMS_P1;PMS_P2;Temp;Humidity;BMP_temperature;BMP_pressure;BME280_temperature;BME280_humidity;BME280_pressure;Samples;Min_cycle;Max_cycle;Signal;HPM_P1;HPM_P2
2024/03/01 00:01:29;;;;;;;37.42;20.80;;;10.00;99.90;;;;;;5091401;28;20071;-77
2024/03/01 00:03:58;;;;;;;44.75;22.50;;;10.10;99.90;;;;;;5089424;28;20049;-78
2024/03/01 00:06:26;;;;;;;41.70;21.80;;;10.10;99.90;;;;;;5089273;28;20048;-77
2024/03/01 00:08:56;;;;;;;41.83;20.50;;;10.10;99.90;;;;;;5091763;28;20436;-77
2024/03/01 00:11:25;;;;;;;42.65;21.30;;;10.10;99.90;;;;;;5087948;28;20059;-77
2024/03/01 00:13:54;;;;;;;42.63;20.52;;;10.10;99.90;;;;;;5087872;28;20036;-79
2024/03/01 00:16:25;;;;;;;44.60;21.73;;;10.10;99.90;;;;;;5089236;28;20048;-78
2024/03/01 00:18:53;;;;;;;43.92;22.85;;;10.10;99.90;;;;;;5099183;28;20060;-75
2024/03/01 00:21:22;;;;;;;44.42;21.70;;;10.10;99.90;;;;;;5090495;28;20058;-78
2024/03/01 00:23:51;;;;;;;43.67;22.73;;;10.10;99.90;;;;;;5088098;28;20048;-75
2024/03/01 00:26:20;;;;;;;43.70;21.20;;;10.00;99.90;;;;;;5082725;28;20037;-78
2024/03/01 00:28:50;;;;;;;45.80;22.45;;;10.10;99.90;;;;;;5092582;28;20044;-78
2024/03/01 00:31:19;;;;;;;44.63;22.15;;;10.10;99.90;;;;;;5099289;28;20142;-76
2024/03/01 00:33:49;;;;;;;44.15;21.48;;;10.10;99.90;;;;;;5089890;28;20052;-76
2024/03/01 00:36:17;;;;;;;41.83;21.02;;;10.10;99.90;;;;;;5081608;28;20049;-74
2024/03/01 00:38:48;;;;;;;43.33;21.35;;;10.10;99.90;;;;;;5087148;28;20089;-77
2024/03/01 00:41:16;;;;;;;44.53;21.55;;;10.10;99.90;;;;;;5087565;28;20032;-79
2024/03/01 00:43:46;;;;;;;42.42;21.42;;;10.10;99.90;;;;;;5082801;28;20474;-78
2024/03/01 00:46:15;;;;;;;45.40;22.25;;;10.10;99.90;;;;;;5085421;28;20036;-79
2024/03/01 00:48:44;;;;;;;44.80;21.48;;;10.10;99.90;;;;;;5091888;28;21156;-75
2024/03/01 00:51:14;;;;;;;47.78;22.35;;;10.10;99.90;;;;;;5085098;28;20150;-75
2024/03/01 00:53:43;;;;;;;42.60;21.30;;;10.10;99.90;;;;;;5080574;28;20040;-74
2024/03/01 00:56:13;;;;;;;45.45;21.80;;;10.10;99.90;;;;;;5081050;28;20487;-75
2024/03/01 00:58:44;;;;;;;46.67;23.00;;;10.00;99.90;;;;;;5078526;28;20055;-74
2024/03/01 01:01:13;;;;;;;47.20;22.10;;;10.00;99.90;;;;;;5076714;28;20467;-74
2024/03/01 01:03:42;;;;;;;41.22;21.67;;;10.00;99.90;;;;;;5074830;28;20086;-76
2024/03/01 01:06:11;;;;;;;45.25;21.80;;;9.90;99.90;;;;;;5076216;28;20063;-74
2024/03/01 01:08:41;;;;;;;44.15;21.48;;;9.90;99.90;;;;;;5087925;28;20094;-77
2024/03/01 01:11:09;;;;;;;44.35;22.08;;;9.90;99.90;;;;;;5090996;28;20048;-75
2024/03/01 01:13:38;;;;;;;43.30;22.65;;;9.90;99.90;;;;;;5103278;28;20134;-76
2024/03/01 01:16:07;;;;;;;46.22;22.38;;;9.90;99.90;;;;;;5089572;28;20098;-78
2024/03/01 01:18:35;;;;;;;45.47;23.17;;;9.90;99.90;;;;;;5090471;28;20071;-75
2024/03/01 01:21:05;;;;;;;46.60;21.15;;;9.80;99.90;;;;;;5089900;28;20051;-77
2024/03/01 01:23:36;;;;;;;41.58;21.88;;;9.80;99.90;;;;;;5089200;28;20048;-75
2024/03/01 01:26:07;;;;;;;43.30;21.27;;;9.80;99.90;;;;;;5085311;28;20048;-75
2024/03/01 01:28:36;;;;;;;41.40;21.52;;;9.70;99.90;;;;;;5085585;28;20411;-75
2024/03/01 01:31:07;;;;;;;48.22;23.65;;;9.70;99.90;;;;;;5087174;28;20036;-75
2024/03/01 01:33:36;;;;;;;42.40;21.60;;;9.70;99.90;;;;;;5087661;28;20048;-78
2024/03/01 01:36:05;;;;;;;45.22;21.98;;;9.70;99.90;;;;;;5082326;28;22811;-79
2024/03/01 01:38:34;;;;;;;39.85;20.88;;;9.70;99.90;;;;;;5083024;28;20060;-76
2024/03/01 01:41:02;;;;;;;40.90;21.55;;;9.70;99.90;;;;;;5081086;28;20495;-76
2024/03/01 01:43:33;;;;;;;42.88;21.88;;;9.70;99.90;;;;;;5085887;28;20127;-75
2024/03/01 01:46:01;;;;;;;45.17;21.65;;;9.70;99.90;;;;;;5101864;27;20406;-79
2024/03/01 01:48:30;;;;;;;41.55;22.23;;;9.70;99.90;;;;;;5087366;28;20079;-79
2024/03/01 01:51:01;;;;;;;48.80;22.15;;;9.70;99.90;;;;;;5087048;28;21171;-76
2024/03/01 01:53:29;;;;;;;41.85;21.75;;;9.70;99.90;;;;;;5099920;28;20049;-77
2024/03/01 01:56:00;;;;;;;40.97;21.20;;;9.60;99.90;;;;;;5086892;28;20067;-77
2024/03/01 01:58:29;;;;;;;47.35;22.98;;;9.60;99.90;;;;;;5083230;28;20140;-76
2024/03/01 02:01:00;;;;;;;48.13;21.98;;;9.60;99.90;;;;;;5082484;28;20052;-78
2024/03/01 02:03:28;;;;;;;43.88;20.35;;;9.60;99.90;;;;;;5082585;28;20060;-76
2024/03/01 02:05:57;;;;;;;47.47;22.58;;;9.50;99.90;;;;;;5084923;28;20063;-78
2024/03/01 02:08:25;;;;;;;43.28;21.63;;;9.50;99.90;;;;;;5083001;28;20040;-79
2024/03/01 02:10:53;;;;;;;52.40;23.17;;;9.50;99.90;;;;;;5093192;28;20055;-76
2024/03/01 02:13:22;;;;;;;43.53;21.67;;;9.50;99.90;;;;;;5095594;28;20052;-75
2024/03/01 02:15:51;;;;;;;43.30;21.75;;;9.50;99.90;;;;;;5087654;28;20144;-74
2024/03/01 02:18:22;;;;;;;46.78;21.50;;;9.50;99.90;;;;;;5099644;28;20634;-77
2024/03/01 02:21:00;;;;;;;41.08;21.02;;;9.50;99.90;;;;;;5088738;28;20040;-77
2024/03/01 02:23:31;;;;;;;43.30;22.20;;;9.50;99.90;;;;;;5085896;28;20146;-75
2024/03/01 02:25:59;;;;;;;44.30;21.60;;;9.40;99.90;;;;;;5091086;28;20552;-75
2024/03/01 02:28:28;;;;;;;48.08;22.38;;;9.40;99.90;;;;;;5086997;28;20040;-76
2024/03/01 02:30:57;;;;;;;46.38;21.95;;;9.40;99.90;;;;;;5083540;28;20170;-75
2024/03/01 02:33:25;;;;;;;42.60;20.15;;;9.50;99.90;;;;;;5086402;28;20043;-79
2024/03/01 02:35:55;;;;;;;40.78;21.05;;;9.40;99.90;;;;;;5086361;28;20139;-75
2024/03/01 02:38:23;;;;;;;41.78;20.50;;;9.40;99.90;;;;;;5082236;28;20052;-75
2024/03/01 02:40:54;;;;;;;44.13;20.27;;;9.40;99.90;;;;;;5101930;28;20176;-76
2024/03/01 02:43:23;;;;;;;45.58;21.02;;;9.40;99.90;;;;;;5091996;28;20040;-76
2024/03/01 02:45:51;;;;;;;38.75;21.65;;;9.50;99.90;;;;;;5084817;28;20044;-76
2024/03/01 02:48:20;;;;;;;43.08;21.98;;;9.50;99.90;;;;;;5103422;28;20574;-75
2024/03/01 02:50:49;;;;;;;48.35;22.75;;;9.50;99.90;;;;;;5084658;28;20048;-76
2024/03/01 02:53:17;;;;;;;41.30;21.08;;;9.50;99.90;;;;;;5086666;28;20131;-75
2024/03/01 02:55:46;;;;;;;44.97;22.08;;;9.50;99.90;;;;;;5083328;28;20058;-77
2024/03/01 02:58:16;;;;;;;39.67;21.42;;;9.50;99.90;;;;;;5082715;28;20055;-76
2024/03/01 03:00:44;;;;;;;43.20;21.05;;;9.50;99.90;;;;;;5085126;28;20067;-78
2024/03/01 03:03:13;;;;;;;45.95;21.50;;;9.50;99.90;;;;;;5080666;28;20141;-76
2024/03/01 03:05:41;;;;;;;38.88;20.08;;;9.50;99.90;;;;;;5078295;28;20098;-75
2024/03/01 03:08:10;;;;;;;43.25;21.67;;;9.40;99.90;;;;;;5081001;28;20109;-76
2024/03/01 03:10:39;;;;;;;49.40;22.75;;;9.40;99.90;;;;;;5103710;27;20564;-76
2024/03/01 03:13:08;;;;;;;39.33;19.45;;;9.40;99.90;;;;;;5085758;28;20100;-76
2024/03/01 03:15:39;;;;;;;48.97;21.95;;;9.50;99.90;;;;;;5102434;28;20044;-76
2024/03/01 03:18:08;;;;;;;47.85;20.38;;;9.50;99.90;;;;;;5084071;28;20083;-76
2024/03/01 03:20:36;;;;;;;43.88;21.50;;;9.50;99.90;;;;;;5082799;28;20077;-75
2024/03/01 03:23:05;;;;;;;47.25;20.88;;;9.50;99.90;;;;;;5080616;28;20102;-76
2024/03/01 03:25:36;;;;;;;40.40;20.40;;;9.50;99.90;;;;;;5083570;28;20048;-76
2024/03/01 03:28:05;;;;;;;41.72;19.38;;;9.50;99.90;;;;;;5081975;28;20406;-76
2024/03/01 03:30:35;;;;;;;43.05;21.05;;;9.50;99.90;;;;;;5082663;28;20499;-77
2024/03/01 03:33:05;;;;;;;41.45;20.02;;;9.50;99.90;;;;;;5085346;28;20104;-75
2024/03/01 03:35:33;;;;;;;43.03;21.15;;;9.40;99.90;;;;;;5083769;28;20044;-76
2024/03/01 03:38:03;;;;;;;42.72;19.88;;;9.50;99.90;;;;;;5099375;28;20047;-76
2024/03/01 03:40:31;;;;;;;40.28;20.48;;;9.50;99.90;;;;;;5084288;28;20049;-76
2024/03/01 03:43:00;;;;;;;38.60;19.55;;;9.50;99.90;;;;;;5100977;28;20044;-75
2024/03/01 03:45:29;;;;;;;41.15;19.77;;;9.50;99.90;;;;;;5085553;28;20615;-76
2024/03/01 03:47:58;;;;;;;38.03;19.25;;;9.50;99.90;;;;;;5084049;28;20040;-75
2024/03/01 03:50:28;;;;;;;40.80;20.70;;;9.50;99.90;;;;;;5084066;28;20044;-75
2024/03/01 03:52:57;;;;;;;40.25;20.00;;;9.50;99.90;;;;;;5079599;28;20384;-78
2024/03/01 03:55:26;;;;;;;44.78;20.60;;;9.50;99.90;;;;;;5081215;28;20559;-79
2024/03/01 03:57:55;;;;;;;41.38;20.85;;;9.50;99.90;;;;;;5083282;28;20028;-75
2024/03/01 04:00:23;;;;;;;45.33;21.13;;;9.50;99.90;;;;;;5085168;28;20062;-74
2024/03/01 04:02:52;;;;;;;44.42;21.83;;;9.50;99.90;;;;;;5097441;28;20494;-77
2024/03/01 04:05:20;;;;;;;38.13;18.67;;;9.50;99.90;;;;;;5085916;28;20097;-76
2024/03/01 04:07:50;;;;;;;42.63;20.90;;;9.50;99.90;;;;;;5086345;28;20558;-76
2024/03/01 04:10:19;;;;;;;41.08;20.02;;;9.50;99.90;;;;;;5087336;28;20051;-76
2024/03/01 04:12:48;;;;;;;36.90;20.30;;;9.50;99.90;;;;;;5081609;28;20044;-75
2024/03/01 04:15:17;;;;;;;42.38;21.17;;;9.50;99.90;;;;;;5084807;28;20044;-75
2024/03/01 04:17:46;;;;;;;41.72;19.98;;;9.50;99.90;;;;;;5082864;28;20468;-76
2024/03/01 04:20:16;;;;;;;40.92;20.98;;;9.50;99.90;;;;;;5083080;28;20093;-75
2024/03/01 04:22:45;;;;;;;44.20;21.48;;;9.50;99.90;;;;;;5098825;28;20052;-76
2024/03/01 04:25:16;;;;;;;43.47;19.98;;;9.50;99.90;;;;;;5102507;28;20044;-78
2024/03/01 04:27:45;;;;;;;40.45;20.90;;;9.50;99.90;;;;;;5080744;28;20040;-75
2024/03/01 04:30:14;;;;;;;54.72;20.33;;;9.50;99.90;;;;;;5082800;28;20048;-75
2024/03/01 04:32:42;;;;;;;40.17;19.73;;;9.50;99.90;;;;;;5083625;28;21300;-77
2024/03/01 04:35:12;;;;;;;42.35;22.63;;;9.50;99.90;;;;;;5081029;28;20056;-76
2024/03/01 04:37:40;;;;;;;40.70;20.73;;;9.50;99.90;;;;;;5083888;28;20881;-76
2024/03/01 04:40:10;;;;;;;38.67;19.63;;;9.50;99.90;;;;;;5085224;28;20072;-76
2024/03/01 04:42:41;;;;;;;43.35;20.83;;;9.50;99.90;;;;;;5101638;28;20056;-77
2024/03/01 04:45:10;;;;;;;41.00;19.88;;;9.50;99.90;;;;;;5091048;28;20055;-80
2024/03/01 04:47:38;;;;;;;43.65;20.33;;;9.50;99.90;;;;;;5085179;28;20135;-75
2024/03/01 04:50:08;;;;;;;40.42;20.13;;;9.50;99.90;;;;;;5092411;28;20078;-77
2024/03/01 04:52:37;;;;;;;38.72;20.67;;;9.50;99.90;;;;;;5103678;27;20569;-77
2024/03/01 04:55:09;;;;;;;42.88;19.55;;;9.50;99.90;;;;;;5078672;28;20044;-77
2024/03/01 04:57:38;;;;;;;39.65;21.17;;;9.50;99.90;;;;;;5096730;28;20044;-78
2024/03/01 05:00:13;;;;;;;40.67;19.50;;;9.50;99.90;;;;;;5085951;28;20074;-75
2024/03/01 05:02:42;;;;;;;43.67;21.00;;;9.50;99.90;;;;;;5085271;28;20498;-75
2024/03/01 05:05:11;;;;;;;54.03;21.52;;;9.50;99.90;;;;;;5089793;28;20131;-75
2024/03/01 05:07:40;;;;;;;42.03;19.05;;;9.50;99.90;;;;;;5101088;28;20914;-84
2024/03/01 05:10:10;;;;;;;36.97;18.83;;;9.50;99.90;;;;;;5100359;28;20399;-75
2024/03/01 05:12:40;;;;;;;38.53;19.88;;;9.50;99.90;;;;;;5085631;28;20110;-78
2024/03/01 05:15:12;;;;;;;41.53;20.05;;;9.50;99.90;;;;;;5083915;28;20101;-76
2024/03/01 05:17:43;;;;;;;40.63;20.17;;;9.50;99.90;;;;;;5089094;28;20415;-75
2024/03/01 05:20:14;;;;;;;36.33;18.20;;;9.50;99.90;;;;;;5090226;28;20036;-75
2024/03/01 05:22:44;;;;;;;37.17;20.00;;;9.50;99.90;;;;;;5085146;28;20044;-75
2024/03/01 05:25:16;;;;;;;43.60;20.10;;;9.50;99.90;;;;;;5089246;28;20075;-75
2024/03/01 05:27:46;;;;;;;;;;;9.50;99.90;;;;;;5101573;28;20510;-75
2024/03/01 05:30:18;;;;;;;40.25;20.10;;;9.50;99.90;;;;;;5087703;28;19927;-75
2024/03/01 05:33:06;;;;;;;40.45;18.70;;;9.50;99.90;;;;;;5084944;28;20503;-76
2024/03/01 05:35:37;;;;;;;39.58;19.48;;;9.50;99.90;;;;;;5086715;28;20052;-76
2024/03/01 05:38:06;;;;;;;42.75;19.92;;;9.50;99.90;;;;;;5083305;28;20123;-75
2024/03/01 05:40:35;;;;;;;44.90;21.27;;;9.60;99.90;;;;;;5086258;28;20044;-76
2024/03/01 05:43:18;;;;;;;41.50;20.73;;;9.50;99.90;;;;;;5099063;28;20446;-77
2024/03/01 05:45:48;;;;;;;44.33;21.55;;;9.60;99.90;;;;;;5086911;28;20060;-75
2024/03/01 05:48:17;;;;;;;39.22;20.65;;;9.60;99.90;;;;;;5086423;28;20495;-75
2024/03/01 05:50:46;;;;;;;36.25;18.50;;;9.60;99.90;;;;;;5088868;28;20040;-81
2024/03/01 05:53:17;;;;;;;41.47;20.15;;;9.60;99.90;;;;;;5084328;28;20048;-76
2024/03/01 05:55:46;;;;;;;42.60;19.60;;;9.60;99.90;;;;;;5084366;28;20051;-76
2024/03/01 05:58:14;;;;;;;40.00;20.85;;;9.60;99.90;;;;;;5085439;28;20407;-78
2024/03/01 06:00:44;;;;;;;40.83;20.20;;;9.60;99.90;;;;;;5087282;28;20127;-79
2024/03/01 06:03:14;;;;;;;40.40;19.55;;;9.60;99.90;;;;;;5083150;28;20049;-76
2024/03/01 06:05:43;;;;;;;43.55;20.73;;;9.60;99.90;;;;;;5084401;28;20036;-78
2024/03/01 06:08:11;;;;;;;40.15;20.25;;;9.60;99.90;;;;;;5100884;27;20048;-76
2024/03/01 06:10:39;;;;;;;37.80;20.38;;;9.60;99.90;;;;;;5081319;28;21585;-77
2024/03/01 06:13:08;;;;;;;39.63;19.77;;;9.60;99.90;;;;;;5081555;28;20054;-75
2024/03/01 06:15:37;;;;;;;42.05;20.83;;;9.60;99.90;;;;;;5080577;28;20068;-76
2024/03/01 06:18:06;;;;;;;34.17;19.65;;;9.70;99.90;;;;;;5099622;28;20474;-76
2024/03/01 06:20:36;;;;;;;38.03;18.50;;;9.70;99.90;;;;;;5087793;28;20040;-75
2024/03/01 06:23:05;;;;;;;36.83;18.33;;;9.70;99.90;;;;;;5085598;28;20044;-76
2024/03/01 06:25:33;;;;;;;41.95;18.55;;;9.70;99.90;;;;;;5086939;28;20209;-77
2024/03/01 06:28:02;;;;;;;36.92;19.85;;;9.80;99.90;;;;;;5086607;28;20114;-76
2024/03/01 06:30:31;;;;;;;34.60;17.15;;;9.80;99.90;;;;;;5084069;28;20052;-74
2024/03/01 06:33:00;;;;;;;34.03;16.90;;;9.80;99.90;;;;;;5085120;28;20383;-75
2024/03/01 06:35:28;;;;;;;33.22;17.58;;;9.90;99.90;;;;;;5087832;28;20505;-75
2024/03/01 06:37:58;;;;;;;30.33;16.20;;;9.90;99.90;;;;;;5085808;28;20048;-75
2024/03/01 06:40:27;;;;;;;32.97;16.88;;;9.90;99.90;;;;;;5084961;28;20586;-75
2024/03/01 06:42:56;;;;;;;30.80;15.23;;;9.90;99.90;;;;;;5087139;28;20056;-76
2024/03/01 06:45:24;;;;;;;32.47;13.05;;;9.90;99.90;;;;;;5084123;28;20039;-76
2024/03/01 06:47:53;;;;;;;32.92;14.50;;;9.90;99.90;;;;;;5078900;28;20090;-74
2024/03/01 06:50:21;;;;;;;31.40;15.88;;;9.90;99.90;;;;;;5075673;28;22262;-76
2024/03/01 06:52:50;;;;;;;37.47;16.92;;;9.90;99.90;;;;;;5082894;28;20041;-78
2024/03/01 06:55:20;;;;;;;34.67;17.85;;;9.90;99.90;;;;;;5083562;28;20048;-77
2024/03/01 06:57:49;;;;;;;36.28;17.35;;;9.90;99.90;;;;;;5083437;28;20458;-75
2024/03/01 07:00:19;;;;;;;36.95;18.30;;;9.90;99.90;;;;;;5100436;27;20084;-79
2024/03/01 07:02:47;;;;;;;35.88;17.00;;;9.90;99.90;;;;;;5099319;28;20048;-81
2024/03/01 07:05:16;;;;;;;34.67;17.33;;;9.90;99.90;;;;;;5083300;28;20057;-77
2024/03/01 07:07:45;;;;;;;37.03;17.83;;;9.90;99.90;;;;;;5079557;28;20040;-76
2024/03/01 07:10:13;;;;;;;35.53;17.88;;;9.90;99.90;;;;;;5084674;28;20540;-76
2024/03/01 07:12:43;;;;;;;35.97;17.92;;;9.90;99.90;;;;;;5084198;28;20033;-75
2024/03/01 07:15:12;;;;;;;38.35;18.17;;;9.90;99.90;;;;;;5094471;28;20043;-76
2024/03/01 07:17:41;;;;;;;41.47;19.55;;;9.90;99.90;;;;;;5091208;28;20059;-75
2024/03/01 07:20:12;;;;;;;37.15;19.17;;;9.90;99.90;;;;;;5097108;28;20044;-80
2024/03/01 07:22:41;;;;;;;40.58;20.63;;;9.90;99.90;;;;;;5081232;28;20044;-74
2024/03/01 07:25:10;;;;;;;37.72;19.00;;;10.00;99.90;;;;;;5087181;28;20383;-75
2024/03/01 07:27:38;;;;;;;41.42;20.52;;;10.00;99.90;;;;;;5086407;28;20047;-79
2024/03/01 07:30:09;;;;;;;40.80;20.75;;;10.00;99.90;;;;;;5084373;28;20110;-76
2024/03/01 07:32:38;;;;;;;43.80;22.45;;;10.00;99.90;;;;;;5100421;27;20062;-75
2024/03/01 07:35:07;;;;;;;43.33;22.00;;;10.00;99.90;;;;;;5080945;28;20035;-79
2024/03/01 07:37:36;;;;;;;35.58;19.00;;;10.00;99.90;;;;;;5086232;28;20055;-79
2024/03/01 07:40:06;;;;;;;40.13;21.60;;;10.10;99.90;;;;;;5099401;27;20060;-79
2024/03/01 07:42:35;;;;;;;34.00;16.55;;;10.10;99.90;;;;;;5084545;28;20398;-81
2024/03/01 07:45:05;;;;;;;38.45;19.02;;;10.10;99.90;;;;;;5082388;28;20076;-77
2024/03/01 07:47:34;;;;;;;36.72;17.65;;;10.10;99.90;;;;;;5099399;28;20147;-76
2024/03/01 07:50:03;;;;;;;36.65;19.27;;;10.10;99.90;;;;;;5088984;28;20396;-76
2024/03/01 07:52:32;;;;;;;34.80;17.15;;;10.20;99.90;;;;;;5081326;28;20047;-79
2024/03/01 07:55:00;;;;;;;31.40;16.77;;;10.20;99.90;;;;;;5086996;28;20052;-78
2024/03/01 07:57:29;;;;;;;36.95;19.88;;;10.20;99.90;;;;;;5100703;27;20104;-79
2024/03/01 07:59:57;;;;;;;35.90;18.48;;;10.20;99.90;;;;;;5089601;28;20403;-76
2024/03/01 08:02:26;;;;;;;35.30;19.02;;;10.30;99.90;;;;;;5083847;28;20032;-77
2024/03/01 08:04:56;;;;;;;33.50;17.48;;;10.30;99.90;;;;;;5085802;28;20044;-74
2024/03/01 08:07:24;;;;;;;34.33;18.02;;;10.40;99.90;;;;;;5097830;28;20045;-75
2024/03/01 08:09:54;;;;;;;27.75;12.73;;;10.40;99.90;;;;;;5082001;28;20066;-75
2024/03/01 08:12:22;;;;;;;34.85;17.80;;;10.50;99.90;;;;;;5080099;28;20052;-77
2024/03/01 08:14:52;;;;;;;34.28;16.67;;;10.50;99.90;;;;;;5079960;28;20040;-83
2024/03/01 08:17:20;;;;;;;29.13;14.82;;;10.60;99.90;;;;;;5097601;27;20606;-77
2024/03/01 08:19:50;;;;;;;34.10;16.42;;;10.70;99.90;;;;;;5087305;28;20043;-74
2024/03/01 08:22:21;;;;;;;32.90;17.98;;;10.80;99.90;;;;;;5088971;28;20483;-76
2024/03/01 08:24:50;;;;;;;35.22;18.40;;;10.80;99.90;;;;;;5092887;28;20147;-75
2024/03/01 08:27:23;;;;;;;38.42;18.30;;;10.90;99.90;;;;;;5084071;28;20044;-78
2024/03/01 08:29:52;;;;;;;37.00;16.38;;;11.00;99.90;;;;;;5090757;28;20045;-76
2024/03/01 08:32:32;;;;;;;37.53;18.27;;;11.10;99.90;;;;;;5087112;28;20040;-75
2024/03/01 08:35:02;;;;;;;25.98;13.48;;;11.10;99.90;;;;;;5089303;28;20052;-75
2024/03/01 08:37:33;;;;;;;34.72;16.73;;;11.10;99.90;;;;;;5083607;28;20616;-76
2024/03/01 08:40:03;;;;;;;32.47;15.32;;;11.00;99.90;;;;;;5083883;28;20040;-78
2024/03/01 08:42:35;;;;;;;31.15;15.93;;;10.90;99.90;;;;;;5089507;28;20063;-78
2024/03/01 08:45:06;;;;;;;27.80;15.32;;;10.90;99.90;;;;;;5084793;28;20410;-79
2024/03/01 08:47:37;;;;;;;27.02;14.48;;;10.90;99.90;;;;;;5098459;27;20131;-76
2024/03/01 08:50:33;;;;;;;35.55;17.20;;;10.90;99.90;;;;;;5084695;28;20059;-76
2024/03/01 08:53:05;;;;;;;35.47;15.98;;;10.90;99.90;;;;;;5084751;28;20143;-76
2024/03/01 08:55:51;;;;;;;31.17;15.80;;;11.00;99.90;;;;;;5100407;27;20059;-76
2024/03/01 08:58:25;;;;;;;35.47;16.45;;;10.90;99.90;;;;;;5100875;27;20479;-74
2024/03/01 09:00:55;;;;;;;33.58;16.52;;;11.00;99.90;;;;;;5086378;28;20464;-82
2024/03/01 09:03:25;;;;;;;32.67;17.05;;;10.90;99.90;;;;;;5089574;28;20042;-79
2024/03/01 09:05:55;;;;;;;32.33;16.13;;;10.90;99.90;;;;;;5084356;28;20055;-76
2024/03/01 09:08:31;;;;;;;35.60;16.23;;;11.00;99.90;;;;;;5087686;28;20139;-76
2024/03/01 09:11:00;;;;;;;27.27;14.77;;;11.10;99.90;;;;;;5084493;28;20498;-77
2024/03/01 09:13:31;;;;;;;32.42;16.73;;;11.20;99.90;;;;;;5085492;28;20052;-79
2024/03/01 09:16:01;;;;;;;30.35;14.23;;;11.30;99.90;;;;;;5087227;28;20541;-79
2024/03/01 09:18:49;;;;;;;27.13;15.27;;;11.30;99.90;;;;;;5083342;28;20162;-76
2024/03/01 09:21:47;;;;;;;32.20;16.02;;;11.30;99.90;;;;;;5100748;27;20617;-77
2024/03/01 09:24:18;;;;;;;28.15;15.43;;;11.30;99.90;;;;;;5083056;28;20515;-77
2024/03/01 09:26:48;;;;;;;29.55;14.43;;;11.30;99.90;;;;;;5080240;28;20079;-80
2024/03/01 09:29:35;;;;;;;30.13;15.13;;;11.30;99.90;;;;;;5100864;28;20048;-78
2024/03/01 09:32:05;;;;;;;25.83;11.25;;;11.30;99.90;;;;;;5085908;28;20040;-77
2024/03/01 09:34:37;;;;;;;33.08;15.27;;;11.30;99.90;;;;;;5083096;28;20507;-78
2024/03/01 09:37:11;;;;;;;26.77;15.13;;;11.40;99.90;;;;;;5105548;27;20044;-79
2024/03/01 09:39:41;;;;;;;26.48;12.40;;;11.40;99.90;;;;;;5082941;28;20047;-76
2024/03/01 09:42:39;;;;;;;27.05;13.40;;;11.50;99.90;;;;;;5087483;28;20043;-78
2024/03/01 09:45:24;;;;;;;30.20;14.10;;;11.50;99.90;;;;;;5096109;28;20051;-80
2024/03/01 09:48:11;;;;;;;23.83;12.15;;;11.60;99.90;;;;;;5089843;28;20048;-78
2024/03/01 09:50:56;;;;;;;19.00;9.98;;;11.60;99.90;;;;;;5084335;28;20401;-80
2024/03/01 09:53:39;;;;;;;23.48;11.73;;;11.70;99.90;;;;;;5099395;28;20071;-79
2024/03/01 09:56:18;;;;;;;22.50;11.00;;;11.70;99.90;;;;;;5084225;28;20059;-77
2024/03/01 09:58:54;;;;;;;22.63;9.60;;;11.70;99.90;;;;;;5098521;28;20052;-78
2024/03/01 10:01:36;;;;;;;21.23;11.20;;;11.80;99.90;;;;;;5077503;28;20056;-77
2024/03/01 10:04:16;;;;;;;22.05;10.15;;;11.80;99.90;;;;;;5078961;28;20522;-76
2024/03/01 10:07:02;;;;;;;23.00;11.77;;;11.90;99.90;;;;;;5087548;28;20392;-79
2024/03/01 10:10:02;;;;;;;24.08;12.25;;;11.90;99.90;;;;;;5085226;28;20056;-76
2024/03/01 10:12:46;;;;;;;18.50;9.52;;;12.00;99.90;;;;;;5068166;28;20050;-79
2024/03/01 10:15:23;;;;;;;22.80;11.07;;;12.00;99.90;;;;;;5086945;28;20126;-80
2024/03/01 10:18:19;;;;;;;19.23;9.80;;;12.00;99.90;;;;;;5082855;28;20052;-77
2024/03/01 10:20:57;;;;;;;20.85;9.95;;;12.00;99.90;;;;;;5064933;28;20079;-79
2024/03/01 10:23:39;;;;;;;16.90;8.23;;;12.00;99.90;;;;;;5084766;28;20502;-78
2024/03/01 10:26:15;;;;;;;20.92;9.82;;;12.00;99.90;;;;;;5103597;27;20049;-79
2024/03/01 10:29:09;;;;;;;18.52;8.68;;;12.00;99.90;;;;;;5096761;28;20488;-78
2024/03/01 10:31:52;;;;;;;25.35;10.95;;;12.00;99.90;;;;;;5087373;28;20040;-78
2024/03/01 10:34:25;;;;;;;19.63;10.73;;;12.00;99.90;;;;;;5086382;28;20067;-77
2024/03/01 10:36:55;;;;;;;24.05;12.90;;;11.90;99.90;;;;;;5082009;28;20127;-79
2024/03/01 10:39:37;;;;;;;26.70;12.95;;;12.00;99.90;;;;;;5084438;28;20116;-80
2024/03/01 10:42:11;;;;;;;24.00;11.35;;;11.90;99.90;;;;;;5084735;28;20032;-78
2024/03/01 10:44:50;;;;;;;23.23;12.38;;;11.90;99.90;;;;;;5082529;28;20105;-79
2024/03/01 10:47:22;;;;;;;28.48;13.50;;;11.90;99.90;;;;;;5087503;28;20055;-76
2024/03/01 10:50:14;;;;;;;25.13;12.43;;;11.90;99.90;;;;;;5080853;28;20041;-77
2024/03/01 10:52:47;;;;;;;23.60;12.82;;;11.90;99.90;;;;;;5087659;28;20449;-79
2024/03/01 10:55:21;;;;;;;26.73;12.55;;;11.90;99.90;;;;;;5084971;28;20048;-76
2024/03/01 10:57:59;;;;;;;29.73;15.48;;;11.90;99.90;;;;;;5084922;28;21791;-77
2024/03/01 11:00:29;;;;;;;31.02;14.90;;;12.00;99.90;;;;;;5100217;28;20051;-77
2024/03/01 11:03:08;;;;;;;26.05;12.85;;;12.00;99.90;;;;;;5086440;28;20044;-76
2024/03/01 11:05:40;;;;;;;26.52;13.98;;;11.90;99.90;;;;;;5079032;28;20044;-76
2024/03/01 11:08:24;;;;;;;28.13;14.80;;;12.00;99.90;;;;;;5080831;28;20036;-78
2024/03/01 11:11:00;;;;;;;25.92;13.57;;;12.00;99.90;;;;;;5085616;28;20040;-76
2024/03/01 11:13:32;;;;;;;27.83;14.05;;;12.00;99.90;;;;;;5081512;28;20041;-78
2024/03/01 11:16:05;;;;;;;;;;;12.10;99.90;;;;;;5082435;28;20075;-76
2024/03/01 11:18:39;;;;;;;22.95;13.13;;;12.10;99.90;;;;;;5081396;28;19924;-77
2024/03/01 11:21:11;;;;;;;27.48;14.18;;;12.10;99.90;;;;;;5082155;28;23834;-79
2024/03/01 11:23:44;;;;;;;25.88;13.02;;;12.10;99.90;;;;;;5101032;27;20592;-76
2024/03/01 11:26:18;;;;;;;23.23;12.05;;;12.10;99.90;;;;;;5097745;28;20426;-80
2024/03/01 11:28:57;;;;;;;22.85;12.00;;;12.10;99.90;;;;;;5084764;28;20044;-76
2024/03/01 11:31:30;;;;;;;24.33;12.10;;;12.10;99.90;;;;;;5100099;27;20048;-77
2024/03/01 11:34:03;;;;;;;23.58;12.80;;;12.10;99.90;;;;;;5080231;28;20051;-78
2024/03/01 11:36:39;;;;;;;;;;;12.10;99.90;;;;;;5082307;28;20044;-77
2024/03/01 11:39:21;;;;;;;27.60;12.95;;;12.10;99.90;;;;;;5087820;28;19981;-77
2024/03/01 11:42:04;;;;;;;24.30;12.70;;;12.10;99.90;;;;;;5097922;28;20063;-78
2024/03/01 11:44:42;;;;;;;34.30;14.90;;;12.10;99.90;;;;;;5082087;28;20040;-78
2024/03/01 11:47:29;;;;;;;22.83;12.40;;;12.10;99.90;;;;;;5101670;28;20110;-80
2024/03/01 11:50:31;;;;;;;23.60;11.82;;;12.00;99.90;;;;;;5104207;28;20155;-77
2024/03/01 11:53:11;;;;;;;32.38;15.98;;;12.00;99.90;;;;;;5063767;28;20043;-79
2024/03/01 11:55:55;;;;;;;27.30;13.48;;;12.00;99.90;;;;;;5105042;28;20048;-79
2024/03/01 11:58:30;;;;;;;32.97;16.42;;;12.00;99.90;;;;;;5085703;28;20507;-80
2024/03/01 12:01:20;;;;;;;25.55;13.40;;;12.00;99.90;;;;;;5085174;28;20047;-81
2024/03/01 12:04:36;;;;;;;25.52;14.18;;;12.00;99.90;;;;;;5080988;28;20048;-82
2024/03/01 12:07:30;;;;;;;28.13;13.70;;;12.10;99.90;;;;;;5036849;28;20048;-83
2024/03/01 12:10:09;;;;;;;29.75;14.65;;;12.20;99.90;;;;;;5079291;28;20052;-78
2024/03/01 12:12:46;;;;;;;25.17;13.13;;;12.30;99.90;;;;;;5080937;28;20051;-82
2024/03/01 12:15:21;;;;;;;30.65;15.07;;;12.50;99.90;;;;;;5085458;28;20533;-82
2024/03/01 12:18:00;;;;;;;27.95;15.75;;;12.60;99.90;;;;;;5082065;28;20048;-79
2024/03/01 12:20:32;;;;;;;29.80;15.18;;;12.70;99.90;;;;;;5099537;28;20048;-80
2024/03/01 12:23:22;;;;;;;26.57;14.13;;;12.80;99.90;;;;;;5082671;28;20502;-79
2024/03/01 12:25:50;;;;;;;21.92;9.70;;;12.90;99.90;;;;;;5098529;28;20330;-78
2024/03/01 12:28:40;;;;;;;31.63;16.15;;;13.00;99.90;;;;;;5093335;28;20055;-81
2024/03/01 12:31:19;;;;;;;23.67;13.05;;;12.90;99.90;;;;;;5077178;28;20075;-78
2024/03/01 12:34:03;;;;;;;26.92;14.95;;;12.90;99.90;;;;;;5081929;28;20044;-79
2024/03/01 12:36:40;;;;;;;27.20;13.55;;;12.90;99.90;;;;;;5081615;28;20044;-76
2024/03/01 12:39:19;;;;;;;27.85;13.35;;;13.00;99.90;;;;;;5085450;28;20147;-78
2024/03/01 12:42:05;;;;;;;30.58;14.88;;;13.00;99.90;;;;;;5085036;28;20063;-78
2024/03/01 12:44:46;;;;;;;26.38;12.98;;;13.00;99.90;;;;;;5083823;28;20495;-78
2024/03/01 12:47:54;;;;;;;25.88;13.13;;;13.00;99.90;;;;;;5096414;28;20451;-77
2024/03/01 12:50:35;;;;;;;22.30;11.57;;;13.00;99.90;;;;;;5077448;28;20887;-78
2024/03/01 12:53:18;;;;;;;23.02;12.13;;;13.00;99.90;;;;;;5096063;28;20044;-78
2024/03/01 12:55:59;;;;;;;24.27;12.77;;;12.90;99.90;;;;;;5085312;28;20442;-79
2024/03/01 12:58:33;;;;;;;23.13;12.93;;;12.90;99.90;;;;;;5080270;28;20056;-81
2024/03/01 13:01:09;;;;;;;21.75;11.52;;;12.80;99.90;;;;;;5082515;28;20052;-79